International Virtual Aviation Organisation

Russian Federation and Kazakhstan MCD

 
UACC 041130Z 05008MPS 9000 NSC M20/M23 Q1028 R04/85//60 NOSIG RMK QFE739/0986
QNH:(hPa/inHg/mmHg)1028 / 30.36 / 771
QFE:(hPa/inHg/mmHg)985 / 29.08 / 739
Temperature-20
Dew Point-23
Visibility9000
Weather
Cloud Cover
Transition Height10000 m./34000 ft.
Transition LevelFL350
SQUAWK